Time;durP1;ratioP1;P1;durP2;ratioP2;P2;SDS_P1;SDS_P2;PMS_P1;PMS_P2;Temp;Humidity;BMP_temperature;BMP_pressure;BME280_temperature;BME280_humidity;BME280_pressure;Samples;Min_cycle;Max_cycle;Signal;HPM_P1;HPM_P2
2022/07/02 00:00:50;;;;;;;5.78;5.33;;;;;;;18.34;84.22;96950.25;1789489;79;21003;-79
2022/07/02 00:03:31;;;;;;;6.03;5.53;;;;;;;18.35;84.12;96952.66;1789593;79;20924;-80
2022/07/02 00:06:00;;;;;;;6.95;5.90;;;;;;;18.31;83.67;96965.96;1809573;77;21007;-80
2022/07/02 00:08:27;;;;;;;6.40;5.80;;;;;;;18.23;83.66;96971.51;1798601;77;21050;-80
2022/07/02 00:10:53;;;;;;;6.35;5.53;;;;;;;18.16;83.92;96964.17;1808537;79;20971;-80
2022/07/02 00:13:20;;;;;;;5.83;5.33;;;;;;;18.12;83.84;96963.80;1793088;77;20915;-82
2022/07/02 00:15:46;;;;;;;6.22;5.72;;;;;;;18.10;83.81;96955.32;1791841;77;21042;-80
2022/07/02 00:18:12;;;;;;;6.47;5.97;;;;;;;18.10;83.86;96953.20;1799765;79;20951;-80
2022/07/02 00:20:38;;;;;;;5.70;5.20;;;;;;;18.12;83.82;96949.84;1806229;77;20935;-80
2022/07/02 00:23:04;;;;;;;7.15;5.55;;;;;;;18.13;83.86;96936.98;1784428;77;21270;-80
2022/07/02 00:25:40;;;;;;;6.87;6.15;;;;;;;18.13;83.82;96939.62;1798210;77;21038;-80
2022/07/02 00:28:06;;;;;;;7.42;5.92;;;;;;;18.12;83.88;96949.84;1796982;77;20966;-80
2022/07/02 00:30:33;;;;;;;6.35;5.85;;;;;;;18.12;83.89;96960.36;1782104;77;21030;-80
2022/07/02 00:32:59;;;;;;;7.00;6.30;;;;;;;18.13;84.22;96969.86;1785542;77;20950;-80
2022/07/02 00:35:25;;;;;;;5.80;5.30;;;;;;;18.15;84.32;96977.02;1804047;79;21010;-81
2022/07/02 00:37:51;;;;;;;6.85;5.80;;;;;;;18.17;84.50;96981.05;1797932;77;20990;-81
2022/07/02 00:40:17;;;;;;;6.85;6.33;;;;;;;18.20;84.62;96982.44;1792357;79;21051;-80
2022/07/02 00:42:43;;;;;;;6.67;6.03;;;;;;;18.21;84.66;96981.41;1782436;79;20987;-81
2022/07/02 00:45:09;;;;;;;6.70;6.00;;;;;;;18.25;84.65;96974.73;1785494;79;21557;-81
2022/07/02 00:47:35;;;;;;;7.92;6.53;;;;;;;18.29;84.66;96979.84;1791252;77;20982;-80
2022/07/02 00:50:05;;;;;;;6.65;6.10;;;;;;;18.31;85.05;96980.42;1771906;77;20966;-80
2022/07/02 00:52:31;;;;;;;7.22;6.62;;;;;;;18.32;85.10;96972.02;1782405;77;20998;-80
2022/07/02 00:54:56;;;;;;;6.75;6.15;;;;;;;18.32;85.17;96964.94;1796461;79;20943;-80
2022/07/02 00:57:22;;;;;;;6.92;6.22;;;;;;;18.31;85.18;96968.59;1796333;77;20939;-80
2022/07/02 00:59:48;;;;;;;6.72;6.03;;;;;;;18.34;85.20;96969.47;1794351;79;20978;-80
2022/07/02 01:02:14;;;;;;;7.62;6.92;;;;;;;18.37;85.37;96959.82;1802823;77;21393;-81
2022/07/02 01:04:41;;;;;;;7.00;6.35;;;;;;;18.42;85.59;96963.95;1794323;77;21425;-81
2022/07/02 01:07:10;;;;;;;6.97;6.37;;;;;;;18.44;85.34;96971.62;1808269;77;20966;-81
2022/07/02 01:12:25;;;;;;;8.25;7.55;;;;;;;18.48;85.56;96961.75;1798998;78;20998;-80
2022/07/02 01:14:52;;;;;;;9.35;8.38;;;;;;;18.53;85.29;96954.52;1816783;77;20990;-80
2022/07/02 01:17:18;;;;;;;8.00;7.30;;;;;;;18.52;85.61;96960.28;1804740;77;20970;-80
2022/07/02 01:19:43;;;;;;;7.60;6.87;;;;;;;18.55;85.42;96955.92;1811345;77;20954;-81
2022/07/02 01:22:25;;;;;;;7.87;7.05;;;;;;;18.56;85.47;96956.22;1820390;78;20966;-81
2022/07/02 01:24:53;;;;;;;6.00;5.40;;;;;;;18.58;85.40;96954.17;1790517;78;20961;-81
2022/07/02 01:27:21;;;;;;;7.83;5.50;;;;;;;18.53;83.92;96954.52;1819118;78;20945;-81
2022/07/02 01:29:47;;;;;;;6.28;5.67;;;;;;;18.47;83.97;96947.50;1815366;78;21013;-81
2022/07/02 01:32:13;;;;;;;7.97;6.80;;;;;;;18.45;84.41;96955.61;1804652;77;21317;-80
2022/07/02 01:34:44;;;;;;;6.30;5.80;;;;;;;18.44;84.50;96956.64;1820492;77;20953;-80
2022/07/02 01:37:12;;;;;;;5.95;5.45;;;;;;;18.41;84.13;96957.08;1802838;78;20950;-80
2022/07/02 01:39:38;;;;;;;6.25;5.40;;;;;;;18.38;83.93;96955.36;1799309;77;20942;-81
2022/07/02 01:42:06;;;;;;;5.08;4.67;;;;;;;18.36;84.13;96955.58;1806123;77;22321;-81
2022/07/02 01:44:33;;;;;;;5.33;4.83;;;;;;;18.37;84.32;96969.55;1823894;77;21029;-81
2022/07/02 01:47:01;;;;;;;6.03;5.25;;;;;;;18.39;84.46;96968.33;1803388;77;20958;-80
2022/07/02 01:49:27;;;;;;;5.65;5.15;;;;;;;18.42;84.39;96976.30;1817277;78;20931;-81
2022/07/02 01:51:53;;;;;;;7.12;5.75;;;;;;;18.43;84.60;96989.74;1817200;77;20965;-80
2022/07/02 01:54:19;;;;;;;6.25;5.40;;;;;;;18.40;84.52;96983.61;1806998;78;20926;-82
2022/07/02 01:56:44;;;;;;;6.05;5.45;;;;;;;18.27;84.36;96984.01;1815700;78;20965;-80
2022/07/02 01:59:10;;;;;;;4.65;4.22;;;;;;;18.23;84.70;96993.86;1808891;78;21328;-80
2022/07/02 02:01:36;;;;;;;5.08;4.60;;;;;;;18.18;84.85;96989.73;1765165;79;20996;-81
2022/07/02 02:04:02;;;;;;;5.15;4.72;;;;;;;18.18;85.03;97000.26;1777554;80;20932;-80
2022/07/02 02:06:28;;;;;;;8.00;4.53;;;;;;;18.17;85.10;97000.77;1772435;80;21370;-80
2022/07/02 02:08:54;;;;;;;5.70;4.47;;;;;;;18.09;86.26;97001.05;1727954;81;21046;-80
2022/07/02 02:11:20;;;;;;;4.58;3.98;;;;;;;17.97;84.93;96993.55;1739855;81;21024;-80
2022/07/02 02:13:46;;;;;;;5.65;4.28;;;;;;;17.91;85.11;96993.89;1792213;77;21030;-81
2022/07/02 02:16:12;;;;;;;6.10;5.50;;;;;;;17.85;85.13;96991.30;1784760;77;21317;-81
2022/07/02 02:18:37;;;;;;;7.08;6.37;;;;;;;17.87;85.55;96998.45;1782738;77;20935;-81
2022/07/02 02:21:03;;;;;;;8.35;7.55;;;;;;;17.81;85.17;96996.18;1792499;79;21003;-81
2022/07/02 02:23:29;;;;;;;12.40;8.10;;;;;;;17.77;85.05;96998.14;1782462;77;21298;-81
2022/07/02 02:25:54;;;;;;;9.68;8.70;;;;;;;17.69;84.77;97000.49;1793426;77;20918;-80
2022/07/02 02:28:22;;;;;;;10.80;8.55;;;;;;;17.62;84.98;96996.57;1803219;79;20949;-80
2022/07/02 02:30:48;;;;;;;12.58;9.55;;;;;;;17.58;85.03;96991.95;1785450;77;21397;-80
2022/07/02 02:33:14;;;;;;;13.80;12.40;;;;;;;17.56;85.28;97001.33;1781920;77;21397;-81
2022/07/02 02:35:40;;;;;;;13.43;11.12;;;;;;;17.55;85.04;97001.55;1794602;77;21002;-80
2022/07/02 02:38:06;;;;;;;13.45;10.30;;;;;;;17.48;85.70;97006.04;1790722;77;21038;-81
2022/07/02 02:40:32;;;;;;;16.45;11.25;;;;;;;17.48;85.70;97006.04;1782796;77;21506;-82
2022/07/02 02:42:57;;;;;;;13.05;11.28;;;;;;;17.56;85.73;97024.98;1792438;77;20931;-81
2022/07/02 02:45:23;;;;;;;14.30;11.50;;;;;;;17.52;85.00;97019.86;1800422;77;20986;-81
2022/07/02 02:47:49;;;;;;;13.50;11.45;;;;;;;17.50;85.17;97030.28;1777229;77;21046;-80
2022/07/02 02:50:14;;;;;;;13.03;11.63;;;;;;;17.47;85.41;97034.14;1778516;77;21333;-81
2022/07/02 02:52:40;;;;;;;11.53;10.43;;;;;;;17.43;85.36;97040.02;1794940;79;20951;-80
2022/07/02 02:55:07;;;;;;;13.13;11.83;;;;;;;17.39;85.39;97048.30;1796574;77;20937;-80
2022/07/02 02:57:32;;;;;;;11.48;9.78;;;;;;;17.35;85.91;97049.73;1795029;79;21329;-81
2022/07/02 02:59:58;;;;;;;12.50;11.10;;;;;;;17.32;85.77;97057.23;1787374;77;20892;-80
2022/07/02 03:02:24;;;;;;;14.38;13.03;;;;;;;17.20;85.62;97061.00;1779217;77;21266;-81
2022/07/02 03:04:50;;;;;;;13.53;11.83;;;;;;;17.13;85.79;97069.41;1786615;79;21034;-80
2022/07/02 03:07:16;;;;;;;13.60;12.18;;;;;;;17.09;85.81;97078.72;1796600;77;20988;-81
2022/07/02 03:09:42;;;;;;;13.22;11.95;;;;;;;17.01;86.07;97078.92;1808795;79;21038;-81
2022/07/02 03:12:10;;;;;;;13.22;12.00;;;;;;;16.90;85.93;97083.48;1803542;77;20924;-81
2022/07/02 03:14:36;;;;;;;12.98;11.78;;;;;;;16.85;86.05;97082.78;1813452;79;20930;-81
2022/07/02 03:17:02;;;;;;;13.20;11.90;;;;;;;16.85;86.41;97088.54;1802299;77;21139;-80
2022/07/02 03:19:27;;;;;;;13.00;11.65;;;;;;;16.78;86.18;97087.25;1795852;77;20923;-80
2022/07/02 03:21:53;;;;;;;14.07;12.63;;;;;;;16.80;86.62;97088.66;1752973;81;20959;-81
2022/07/02 03:24:19;;;;;;;13.80;12.37;;;;;;;16.83;86.92;97097.13;1730536;81;20973;-81
2022/07/02 03:26:44;;;;;;;13.60;12.20;;;;;;;16.87;86.56;97099.13;1731643;80;20971;-81
2022/07/02 03:29:10;;;;;;;14.70;13.20;;;;;;;16.87;86.56;97099.13;1725979;80;21306;-80
2022/07/02 03:31:36;;;;;;;14.85;12.45;;;;;;;16.87;86.47;97103.58;1731832;80;21028;-80
2022/07/02 03:34:02;;;;;;;14.28;12.88;;;;;;;16.91;86.68;97108.72;1732768;82;20980;-80
2022/07/02 03:36:27;;;;;;;14.80;12.90;;;;;;;16.90;86.50;97107.10;1733512;80;20928;-80
2022/07/02 03:38:53;;;;;;;15.75;13.90;;;;;;;16.90;86.67;97110.53;1746309;80;20937;-80
2022/07/02 03:41:19;;;;;;;13.18;11.88;;;;;;;16.94;87.04;97113.58;1736926;80;21324;-80
2022/07/02 03:43:45;;;;;;;14.23;12.85;;;;;;;16.92;86.42;97115.10;1725788;80;20984;-80
2022/07/02 03:46:10;;;;;;;15.03;13.53;;;;;;;16.87;86.27;97114.08;1732038;80;20992;-81
2022/07/02 03:48:36;;;;;;;14.83;13.22;;;;;;;16.84;86.25;97106.61;1740880;80;21410;-80
2022/07/02 03:51:02;;;;;;;13.93;12.33;;;;;;;16.85;86.56;97112.97;1788378;77;20927;-80
2022/07/02 03:53:27;;;;;;;14.00;12.70;;;;;;;16.87;86.75;97112.26;1800145;79;20940;-80
2022/07/02 03:55:53;;;;;;;14.20;12.80;;;;;;;16.88;86.65;97106.00;1792874;77;20931;-80
2022/07/02 03:58:19;;;;;;;15.72;14.13;;;;;;;16.88;86.65;97106.00;1804638;79;20954;-81
2022/07/02 04:00:44;;;;;;;15.65;14.03;;;;;;;16.84;86.56;97113.17;1787452;79;20986;-81
2022/07/02 04:03:10;;;;;;;16.00;14.40;;;;;;;16.79;86.92;97108.03;1802774;77;21374;-81
2022/07/02 04:05:36;;;;;;;16.05;14.43;;;;;;;16.82;87.10;97113.37;1802352;77;20973;-81
2022/07/02 04:08:02;;;;;;;13.65;12.20;;;;;;;16.78;86.59;97116.92;1804519;79;21086;-80
2022/07/02 04:10:28;;;;;;;14.18;12.45;;;;;;;16.75;86.67;97112.05;1793365;77;21027;-81
2022/07/02 04:12:54;;;;;;;14.18;12.78;;;;;;;16.78;86.96;97112.18;1810228;77;21298;-82
2022/07/02 04:15:20;;;;;;;14.43;12.45;;;;;;;16.79;86.90;97117.22;1792384;77;20975;-81
2022/07/02 04:17:46;;;;;;;14.78;13.08;;;;;;;16.82;87.00;97125.19;1797450;77;21345;-82
2022/07/02 04:20:11;;;;;;;14.33;12.93;;;;;;;16.78;86.94;97127.42;1792076;79;20998;-81
2022/07/02 04:22:37;;;;;;;15.38;13.78;;;;;;;16.77;86.94;97123.19;1782440;77;20927;-80
2022/07/02 04:25:04;;;;;;;14.83;13.32;;;;;;;16.76;86.49;97132.06;1794959;79;20940;-80
2022/07/02 04:27:29;;;;;;;14.45;13.00;;;;;;;16.76;86.49;97132.06;1787407;77;21069;-80
2022/07/02 04:29:55;;;;;;;14.47;12.98;;;;;;;16.74;86.52;97135.37;1789637;77;21461;-81
2022/07/02 04:32:21;;;;;;;15.08;13.15;;;;;;;16.72;86.25;97137.39;1794533;77;21026;-82
2022/07/02 04:34:47;;;;;;;16.75;13.30;;;;;;;16.72;86.54;97139.21;1801072;77;21279;-81
2022/07/02 04:37:13;;;;;;;15.88;13.68;;;;;;;16.76;86.50;97135.20;1812414;77;20958;-82
2022/07/02 04:39:38;;;;;;;15.93;13.20;;;;;;;16.79;86.38;97129.53;1805183;77;20967;-82
2022/07/02 04:42:05;;;;;;;18.87;14.25;;;;;;;16.82;86.74;97128.32;1799103;77;21318;-82
2022/07/02 04:44:31;;;;;;;16.50;13.65;;;;;;;16.77;86.38;97120.56;1795430;77;21336;-80
2022/07/02 04:46:57;;;;;;;14.35;12.85;;;;;;;16.76;86.60;97117.63;1804814;77;20971;-80
2022/07/02 04:49:22;;;;;;;16.70;14.15;;;;;;;16.76;86.45;97120.77;1794295;79;20999;-80
2022/07/02 04:51:48;;;;;;;16.95;14.53;;;;;;;16.74;86.31;97120.94;1798839;77;21003;-80
2022/07/02 04:54:14;;;;;;;15.10;13.05;;;;;;;16.77;86.39;97124.49;1781965;79;21019;-82
2022/07/02 04:56:40;;;;;;;16.10;13.35;;;;;;;16.78;86.26;97135.80;1792414;77;20946;-81
2022/07/02 04:59:06;;;;;;;15.95;12.73;;;;;;;16.76;86.39;97136.00;1735200;80;20966;-81
2022/07/02 05:01:31;;;;;;;14.63;12.95;;;;;;;16.74;86.34;97132.75;1794333;79;20947;-82
2022/07/02 05:03:57;;;;;;;13.80;12.45;;;;;;;16.71;86.11;97133.66;1783509;77;20990;-81
2022/07/02 05:06:23;;;;;;;13.13;11.78;;;;;;;16.67;86.28;97139.82;1792831;79;21013;-81
2022/07/02 05:08:50;;;;;;;15.75;13.30;;;;;;;16.65;86.20;97147.06;1794536;78;20978;-82
2022/07/02 05:11:19;;;;;;;17.05;12.07;;;;;;;16.68;86.33;97144.06;1799124;78;20973;-81
2022/07/02 05:13:43;;;;;;;14.18;12.75;;;;;;;16.70;86.52;97152.53;1810371;77;20954;-80
2022/07/02 05:16:09;;;;;;;15.03;13.15;;;;;;;16.69;86.17;97164.05;1812237;78;20987;-80
2022/07/02 05:18:36;;;;;;;14.10;12.73;;;;;;;16.66;86.28;97173.60;1827245;77;21006;-81
2022/07/02 05:21:01;;;;;;;14.90;12.37;;;;;;;16.66;86.21;97176.23;1817516;77;21447;-81
2022/07/02 05:23:27;;;;;;;13.80;12.47;;;;;;;16.64;86.19;97187.43;1815016;78;20918;-81
2022/07/02 05:25:53;;;;;;;14.73;12.53;;;;;;;16.66;86.63;97191.16;1806472;78;20957;-80
2022/07/02 05:28:18;;;;;;;14.60;13.22;;;;;;;16.65;86.55;97186.42;1804811;77;20883;-81
2022/07/02 05:30:44;;;;;;;13.95;12.60;;;;;;;16.63;86.28;97182.38;1805824;77;21033;-81
2022/07/02 05:33:10;;;;;;;14.43;13.03;;;;;;;16.66;86.33;97193.28;1806847;78;20988;-80
2022/07/02 05:35:36;;;;;;;16.32;14.80;;;;;;;16.71;86.46;97196.14;1802850;78;21065;-81
2022/07/02 05:38:02;;;;;;;19.50;15.65;;;;;;;16.76;86.48;97187.69;1800710;78;21428;-81
2022/07/02 05:40:27;;;;;;;16.65;14.20;;;;;;;16.78;86.75;97181.73;1802587;77;21014;-81
2022/07/02 05:42:53;;;;;;;15.83;14.20;;;;;;;16.78;86.71;97183.03;1809295;78;21000;-81
2022/07/02 05:45:19;;;;;;;15.72;13.85;;;;;;;16.79;86.61;97183.34;1803915;78;21041;-81
2022/07/02 05:47:44;;;;;;;15.60;14.05;;;;;;;16.78;86.42;97186.47;1799899;78;21328;-81
2022/07/02 05:50:10;;;;;;;17.05;15.35;;;;;;;16.75;86.27;97193.41;1803405;77;21021;-81
2022/07/02 05:52:36;;;;;;;16.77;15.05;;;;;;;16.76;86.18;97194.25;1807747;78;20922;-83
2022/07/02 05:55:02;;;;;;;18.25;16.48;;;;;;;16.73;86.38;97203.30;1808372;77;20982;-81
2022/07/02 05:57:28;;;;;;;19.70;15.32;;;;;;;16.74;86.70;97202.80;1798670;78;20986;-81
2022/07/02 05:59:55;;;;;;;16.05;13.80;;;;;;;16.74;86.75;97202.29;1807464;78;20965;-81
2022/07/02 06:02:21;;;;;;;17.12;14.78;;;;;;;16.77;86.66;97205.85;1814574;77;21024;-82
2022/07/02 06:04:47;;;;;;;15.88;13.85;;;;;;;16.80;86.57;97209.38;1825720;77;21081;-81
2022/07/02 06:09:57;;;;;;;15.28;13.45;;;;;;;16.91;86.88;97225.52;1808795;78;21006;-80
2022/07/02 06:12:23;;;;;;;16.25;14.03;;;;;;;16.87;86.60;97226.94;1825333;78;20979;-81
2022/07/02 06:14:49;;;;;;;14.58;13.10;;;;;;;16.83;86.47;97222.60;1822640;77;20982;-82
2022/07/02 06:17:14;;;;;;;13.62;12.05;;;;;;;16.80;86.99;97217.25;1818431;77;21055;-81
2022/07/02 06:19:42;;;;;;;13.55;11.03;;;;;;;16.72;86.43;97218.74;1810508;77;21017;-81
2022/07/02 06:22:08;;;;;;;13.08;10.85;;;;;;;16.64;86.35;97218.11;1810128;77;20993;-81
2022/07/02 06:24:34;;;;;;;11.95;10.58;;;;;;;16.63;86.61;97229.11;1811122;77;20953;-82
2022/07/02 06:27:00;;;;;;;11.45;10.25;;;;;;;16.61;86.77;97230.32;1802698;77;21419;-81
2022/07/02 06:29:26;;;;;;;12.90;10.25;;;;;;;16.62;86.97;97233.25;1816782;76;20945;-81
2022/07/02 06:31:51;;;;;;;12.07;10.80;;;;;;;16.64;86.65;97237.28;1802848;78;20914;-80
2022/07/02 06:34:17;;;;;;;11.95;10.68;;;;;;;16.64;86.92;97236.48;1806568;78;21328;-82
2022/07/02 06:36:43;;;;;;;12.10;10.82;;;;;;;16.57;86.64;97240.38;1810136;77;20973;-81
2022/07/02 06:39:09;;;;;;;10.93;9.93;;;;;;;16.60;86.77;97247.88;1806588;78;21618;-81
2022/07/02 06:44:19;;;;;;;10.68;9.68;;;;;;;16.59;86.96;97251.98;1807301;77;20993;-81
2022/07/02 06:46:45;;;;;;;12.88;11.68;;;;;;;16.56;86.61;97266.31;1803897;78;21088;-81
2022/07/02 06:49:10;;;;;;;14.38;12.93;;;;;;;16.51;86.75;97273.98;1809439;78;21085;-81
2022/07/02 06:51:36;;;;;;;12.43;11.20;;;;;;;16.46;87.14;97273.77;1740486;80;21487;-80
2022/07/02 06:54:04;;;;;;;11.93;10.70;;;;;;;16.40;87.02;97279.27;1758174;80;21042;-81
2022/07/02 06:56:35;;;;;;;12.43;11.22;;;;;;;16.40;87.36;97282.41;1771882;80;21829;-82
2022/07/02 06:58:58;;;;;;;11.03;9.98;;;;;;;16.39;87.45;97284.72;1773670;79;21029;-81
2022/07/02 07:01:23;;;;;;;12.05;10.95;;;;;;;16.38;87.46;97290.97;1772809;79;21435;-83
2022/07/02 07:03:49;;;;;;;11.05;10.13;;;;;;;16.35;87.44;97280.87;1801362;77;20925;-81
2022/07/02 07:06:15;;;;;;;12.98;11.68;;;;;;;16.35;87.77;97286.13;1812211;77;20910;-81
2022/07/02 07:08:41;;;;;;;12.93;11.73;;;;;;;16.37;88.37;97295.41;1809872;77;21526;-81
2022/07/02 07:11:08;;;;;;;14.60;13.18;;;;;;;16.39;88.17;97297.83;1806007;77;21001;-80
2022/07/02 07:13:33;;;;;;;15.18;13.68;;;;;;;16.36;88.05;97294.30;1806169;77;20915;-81
2022/07/02 07:15:59;;;;;;;20.97;18.77;;;;;;;16.34;88.21;97297.63;1809122;78;20922;-80
2022/07/02 07:18:25;;;;;;;21.82;19.52;;;;;;;16.33;88.10;97301.25;1805135;78;21124;-81
2022/07/02 07:20:53;;;;;;;21.10;19.00;;;;;;;16.33;88.38;97305.98;1804148;77;21065;-81
2022/07/02 07:23:18;;;;;;;20.65;18.62;;;;;;;16.35;88.39;97303.98;1820546;77;20946;-81
2022/07/02 07:25:44;;;;;;;21.17;19.07;;;;;;;16.38;88.97;97306.20;1823369;77;21029;-80
2022/07/02 07:28:10;;;;;;;21.10;18.90;;;;;;;16.36;88.60;97310.03;1805740;77;20943;-79
2022/07/02 07:30:36;;;;;;;21.82;19.60;;;;;;;16.38;88.92;97306.20;1816339;78;21416;-80
2022/07/02 07:33:01;;;;;;;22.40;20.20;;;;;;;16.42;89.03;97308.73;1817353;78;20935;-80
2022/07/02 07:35:27;;;;;;;21.60;19.60;;;;;;;16.45;89.14;97316.74;1812395;78;21313;-80
2022/07/02 07:38:00;;;;;;;21.20;19.20;;;;;;;16.43;88.83;97317.41;1811000;78;20942;-80
2022/07/02 07:40:26;;;;;;;20.40;18.30;;;;;;;16.41;89.33;97319.42;1805235;78;21001;-81
2022/07/02 07:42:53;;;;;;;19.25;17.45;;;;;;;16.36;89.00;97329.70;1804077;77;20923;-80
2022/07/02 07:45:19;;;;;;;18.02;16.32;;;;;;;16.36;89.11;97328.39;1802110;78;20996;-80
2022/07/02 07:47:45;;;;;;;16.93;15.25;;;;;;;16.35;88.93;97329.40;1803564;77;20953;-80
2022/07/02 07:50:10;;;;;;;16.75;14.95;;;;;;;16.33;88.62;97332.22;1812226;77;21009;-80
2022/07/02 07:52:36;;;;;;;18.80;14.93;;;;;;;16.27;88.24;97329.55;1798828;77;20938;-80
2022/07/02 07:55:02;;;;;;;17.50;15.72;;;;;;;16.18;88.37;97325.78;1806546;78;20943;-81
2022/07/02 07:57:28;;;;;;;16.97;15.38;;;;;;;16.18;88.76;97331.53;1807856;78;21001;-81
2022/07/02 07:59:54;;;;;;;16.20;14.73;;;;;;;16.16;89.03;97333.05;1816496;77;21046;-81
2022/07/02 08:02:20;;;;;;;15.90;14.38;;;;;;;16.19;89.03;97330.53;1807698;78;21284;-81
2022/07/02 08:04:45;;;;;;;17.05;15.25;;;;;;;16.26;89.62;97334.48;1804322;77;21266;-81
2022/07/02 08:07:11;;;;;;;15.15;13.68;;;;;;;16.27;89.40;97334.79;1801364;77;20962;-80
2022/07/02 08:09:37;;;;;;;17.02;15.43;;;;;;;16.30;89.34;97339.67;1800112;78;20998;-80
2022/07/02 08:12:05;;;;;;;16.48;14.87;;;;;;;16.31;89.03;97338.16;1803928;77;20974;-80
2022/07/02 08:14:30;;;;;;;15.00;13.60;;;;;;;16.27;88.66;97340.03;1803632;77;21383;-80
2022/07/02 08:16:56;;;;;;;16.42;14.75;;;;;;;16.24;88.43;97337.30;1815260;77;20916;-80
2022/07/02 08:19:22;;;;;;;16.93;15.38;;;;;;;16.17;88.84;97335.97;1788099;78;20962;-80
2022/07/02 08:21:47;;;;;;;17.00;15.30;;;;;;;16.12;88.95;97344.92;1799462;77;20933;-80
2022/07/02 08:24:13;;;;;;;14.50;13.15;;;;;;;16.11;89.13;97349.86;1787287;77;21309;-80
2022/07/02 08:26:39;;;;;;;14.00;12.55;;;;;;;16.08;88.76;97350.22;1799750;78;20982;-80
2022/07/02 08:29:05;;;;;;;14.25;12.80;;;;;;;16.08;88.90;97348.91;1791652;78;20927;-80
2022/07/02 08:31:30;;;;;;;15.00;13.50;;;;;;;16.11;89.21;97356.92;1802679;79;20923;-80
2022/07/02 08:33:56;;;;;;;13.55;12.25;;;;;;;16.14;89.17;97355.22;1808228;78;21001;-80
2022/07/02 08:36:22;;;;;;;13.65;12.30;;;;;;;16.16;89.10;97349.27;1786286;78;21420;-79
2022/07/02 08:38:48;;;;;;;15.70;14.10;;;;;;;16.17;89.07;97349.58;1785499;77;20904;-80
2022/07/02 08:41:13;;;;;;;15.90;14.15;;;;;;;16.15;89.04;97358.95;1784390;77;20962;-80
2022/07/02 08:43:40;;;;;;;15.43;13.93;;;;;;;16.16;88.98;97357.14;1797895;79;20966;-80
2022/07/02 08:46:06;;;;;;;15.18;13.58;;;;;;;16.15;89.23;97360.27;1794100;78;21069;-80
2022/07/02 08:48:33;;;;;;;13.75;12.45;;;;;;;16.15;89.33;97361.58;1794209;78;21073;-81
2022/07/02 08:50:58;;;;;;;14.45;13.10;;;;;;;16.18;88.97;97359.88;1788144;79;20994;-80
2022/07/02 08:53:24;;;;;;;16.10;14.40;;;;;;;16.23;89.51;97363.22;1787791;79;21056;-81
2022/07/02 08:55:50;;;;;;;13.95;12.55;;;;;;;16.31;89.87;97360.45;1785256;78;22123;-80
2022/07/02 08:58:16;;;;;;;14.53;13.10;;;;;;;16.35;89.38;97368.23;1791392;79;20946;-80
2022/07/02 09:00:42;;;;;;;14.43;13.03;;;;;;;16.39;89.42;97362.09;1788486;78;21005;-81
2022/07/02 09:03:09;;;;;;;15.40;13.88;;;;;;;16.37;88.52;97367.53;1785809;79;21337;-81
2022/07/02 09:05:35;;;;;;;15.40;13.80;;;;;;;16.37;89.00;97371.47;1785840;79;21013;-81
2022/07/02 09:08:01;;;;;;;15.83;14.23;;;;;;;16.35;89.30;97368.23;1788846;77;21010;-81
2022/07/02 09:10:27;;;;;;;15.38;13.75;;;;;;;16.34;89.26;97378.92;1789455;77;21109;-82
2022/07/02 09:12:54;;;;;;;16.48;14.90;;;;;;;16.31;89.33;97383.25;1791918;77;21011;-82
2022/07/02 09:15:19;;;;;;;16.02;14.43;;;;;;;16.32;89.23;97383.56;1795884;79;20962;-80
2022/07/02 09:17:45;;;;;;;15.65;13.98;;;;;;;16.34;89.24;97382.86;1798022;77;20990;-81
2022/07/02 09:20:11;;;;;;;15.78;14.28;;;;;;;16.34;88.67;97388.91;1794083;77;20979;-81
2022/07/02 09:22:47;;;;;;;16.42;14.63;;;;;;;16.32;88.81;97383.05;1799727;79;20986;-81
2022/07/02 09:25:20;;;;;;;16.65;15.05;;;;;;;16.36;89.29;97381.66;1796910;79;20935;-80
2022/07/02 09:27:48;;;;;;;15.00;13.45;;;;;;;16.39;89.21;97381.27;1798327;79;20985;-80
2022/07/02 09:30:15;;;;;;;13.00;11.73;;;;;;;16.41;89.23;97379.25;1789993;79;21416;-80
2022/07/02 09:32:45;;;;;;;14.00;12.50;;;;;;;16.46;88.99;97383.94;1794737;77;20954;-80
2022/07/02 09:35:18;;;;;;;15.05;12.55;;;;;;;16.49;89.03;97375.67;1797340;77;21264;-81
2022/07/02 09:37:44;;;;;;;14.20;12.58;;;;;;;16.51;88.50;97378.41;1732998;81;20962;-81
2022/07/02 09:40:11;;;;;;;14.28;12.78;;;;;;;16.54;88.45;97385.58;1739448;81;21036;-82
2022/07/02 09:42:36;;;;;;;15.35;13.80;;;;;;;16.54;88.45;97381.64;1743406;81;20999;-82
2022/07/02 09:45:05;;;;;;;15.35;13.95;;;;;;;16.50;88.61;97387.28;1729952;81;20989;-82
2022/07/02 09:47:40;;;;;;;13.05;11.75;;;;;;;16.51;88.60;97384.16;1729755;82;21136;-80
2022/07/02 09:50:10;;;;;;;13.03;11.83;;;;;;;16.53;88.40;97386.08;1722086;82;20997;-80
2022/07/02 09:52:37;;;;;;;13.78;12.40;;;;;;;16.54;88.18;97381.64;1745320;81;20913;-80
2022/07/02 09:55:04;;;;;;;12.58;11.38;;;;;;;16.61;88.87;97387.24;1748287;81;20945;-81
2022/07/02 09:57:30;;;;;;;12.58;11.28;;;;;;;16.68;88.66;97385.48;1749075;81;21115;-81
2022/07/02 10:00:07;;;;;;;13.80;12.50;;;;;;;16.67;88.01;97385.17;1736819;81;21028;-81
2022/07/02 10:05:28;;;;;;;15.80;14.18;;;;;;;16.65;88.39;97393.72;1659862;84;20998;-81
2022/07/02 10:07:56;;;;;;;14.47;12.98;;;;;;;16.61;88.57;97391.69;1668668;84;21062;-80
2022/07/02 10:10:38;;;;;;;15.68;14.18;;;;;;;16.62;88.25;97394.11;1661664;84;22155;-81
2022/07/02 10:13:00;;;;;;;15.53;13.93;;;;;;;16.61;88.18;97396.42;1673538;84;21022;-81
2022/07/02 10:15:31;;;;;;;16.65;14.95;;;;;;;16.64;88.58;97401.28;1682997;84;21439;-80
2022/07/02 10:17:57;;;;;;;17.30;15.50;;;;;;;16.69;88.57;97400.72;1669684;84;20990;-80
2022/07/02 10:20:23;;;;;;;16.23;14.65;;;;;;;16.70;88.59;97398.40;1685993;84;20962;-82
2022/07/02 10:22:51;;;;;;;17.75;15.93;;;;;;;16.75;88.65;97395.98;1673649;84;20960;-82
2022/07/02 10:25:20;;;;;;;16.10;14.70;;;;;;;16.75;88.45;97399.42;1671046;86;21010;-82
2022/07/02 10:27:46;;;;;;;15.98;14.38;;;;;;;16.76;87.88;97401.07;1674919;84;21029;-81
2022/07/02 10:30:16;;;;;;;16.60;14.15;;;;;;;16.75;87.87;97402.55;1676429;84;21038;-81
2022/07/02 10:32:53;;;;;;;15.23;13.58;;;;;;;16.73;87.89;97401.94;1681617;84;21134;-81
2022/07/02 10:35:20;;;;;;;16.75;15.08;;;;;;;16.74;88.08;97404.37;1678767;84;20970;-81
2022/07/02 10:37:46;;;;;;;17.27;15.68;;;;;;;16.80;87.79;97398.86;1674016;84;21334;-81
2022/07/02 10:40:18;;;;;;;17.23;15.32;;;;;;;16.80;88.08;97400.98;1683631;83;21099;-82
2022/07/02 10:42:48;;;;;;;16.32;14.47;;;;;;;16.80;87.37;97404.11;1678591;84;21058;-81
2022/07/02 10:45:19;;;;;;;15.72;14.10;;;;;;;16.78;87.36;97400.37;1679134;84;20956;-81
2022/07/02 10:48:02;;;;;;;20.20;18.23;;;;;;;16.82;87.77;97399.97;1674488;84;20979;-82
2022/07/02 10:50:41;;;;;;;18.73;16.82;;;;;;;16.87;87.95;97401.50;1675861;84;21033;-82
2022/07/02 10:53:20;;;;;;;18.65;16.77;;;;;;;16.85;87.66;97405.63;1691774;84;21048;-82
2022/07/02 10:55:59;;;;;;;20.05;18.05;;;;;;;16.78;87.37;97404.81;1643910;86;21070;-82
2022/07/02 10:58:32;;;;;;;20.48;18.62;;;;;;;16.77;87.53;97410.56;1684198;84;20971;-82
2022/07/02 11:01:15;;;;;;;22.13;19.92;;;;;;;16.75;87.87;97408.61;1674752;84;21062;-81
2022/07/02 11:03:57;;;;;;;22.73;20.43;;;;;;;16.76;87.94;97410.77;1672193;85;21361;-81
2022/07/02 11:06:30;;;;;;;25.30;22.60;;;;;;;16.77;88.44;97413.19;1684745;84;21034;-81
2022/07/02 11:09:06;;;;;;;22.15;19.92;;;;;;;16.82;88.08;97415.22;1676995;84;21007;-81
2022/07/02 11:11:40;;;;;;;21.77;19.62;;;;;;;16.90;87.90;97407.66;1680215;84;21095;-81
2022/07/02 11:14:15;;;;;;;23.60;20.37;;;;;;;16.94;87.76;97404.97;1681877;84;21002;-80
2022/07/02 11:16:48;;;;;;;22.55;20.15;;;;;;;17.04;88.08;97406.70;1679339;83;21356;-81
2022/07/02 11:19:24;;;;;;;21.45;19.25;;;;;;;17.10;87.53;97413.81;1680213;84;20962;-80
2022/07/02 11:21:57;;;;;;;22.40;20.23;;;;;;;17.14;87.14;97406.34;1672976;84;20998;-83
2022/07/02 11:24:25;;;;;;;22.65;20.50;;;;;;;17.17;87.45;97406.75;1677386;83;20951;-81
2022/07/02 11:26:51;;;;;;;19.87;17.87;;;;;;;17.17;87.18;97406.75;1672985;84;20986;-80
2022/07/02 11:29:17;;;;;;;19.02;17.23;;;;;;;17.06;85.96;97409.44;1685367;84;21331;-81
2022/07/02 11:31:46;;;;;;;20.32;18.32;;;;;;;17.03;85.95;97407.71;1695429;83;20959;-80